Time;durP1;ratioP1;P1;durP2;ratioP2;P2;SDS_P1;SDS_P2;PMS_P1;PMS_P2;Temp;Humidity;BMP_temperature;BMP_pressure;BME280_temperature;BME280_humidity;BME280_pressure;Samples;Min_cycle;Max_cycle;Signal;HPM_P1;HPM_P2
2023/08/13 00:00:34;;;;;;;;;;;17.10;99.90;;;;;;5155811;27;20002;-44
2023/08/13 00:03:00;;;;;;;;;;;17.10;99.90;;;;;;5154938;27;19908;-47
2023/08/13 00:05:26;;;;;;;;;;;17.10;99.90;;;;;;5155708;27;20055;-43
2023/08/13 00:07:51;;;;;;;;;;;17.10;99.90;;;;;;5155690;27;19911;-44
2023/08/13 00:10:17;;;;;;;;;;;17.10;99.90;;;;;;5153981;27;19907;-45
2023/08/13 00:12:42;;;;;;;;;;;17.00;99.90;;;;;;5155596;27;19911;-45
2023/08/13 00:15:10;;;;;;;;;;;17.00;99.90;;;;;;5144119;27;19912;-45
2023/08/13 00:17:36;;;;;;;;;;;17.00;99.90;;;;;;5134059;27;19955;-46
2023/08/13 00:20:01;;;;;;;;;;;16.90;99.90;;;;;;5134685;27;19988;-44
2023/08/13 00:22:27;;;;;;;;;;;17.00;99.90;;;;;;5134630;27;19907;-44
2023/08/13 00:24:54;;;;;;;;;;;16.90;99.90;;;;;;5133956;27;19914;-44
2023/08/13 00:27:19;;;;;;;;;;;17.00;99.90;;;;;;5134600;27;19908;-47
2023/08/13 00:29:45;;;;;;;;;;;16.90;99.90;;;;;;5133760;27;19907;-44
2023/08/13 00:32:10;;;;;;;;;;;16.90;99.90;;;;;;5134533;27;19922;-46
2023/08/13 00:34:36;;;;;;;;;;;17.00;99.90;;;;;;5134357;27;19907;-43
2023/08/13 00:37:01;;;;;;;;;;;17.10;99.90;;;;;;5133607;27;19911;-44
2023/08/13 00:39:27;;;;;;;;;;;17.00;99.90;;;;;;5142231;27;20373;-45
2023/08/13 00:41:53;;;;;;;;;;;17.00;99.90;;;;;;5154975;27;20006;-45
2023/08/13 00:44:18;;;;;;;;;;;17.00;99.90;;;;;;5153831;27;19923;-46
2023/08/13 00:46:45;;;;;;;;;;;17.00;99.90;;;;;;5154799;27;19907;-44
2023/08/13 00:49:10;;;;;;;;;;;17.00;99.90;;;;;;5114001;27;19947;-44
2023/08/13 00:51:36;;;;;;;;;;;17.00;99.90;;;;;;5112657;28;19958;-45
2023/08/13 00:54:01;;;;;;;;;;;17.00;99.90;;;;;;5113504;28;19908;-43
2023/08/13 00:56:27;;;;;;;;;;;17.10;99.90;;;;;;5113548;28;20278;-44
2023/08/13 00:58:53;;;;;;;;;;;17.10;99.90;;;;;;5112770;28;19915;-44
2023/08/13 01:01:18;;;;;;;;;;;17.10;99.90;;;;;;5113470;28;19960;-46
2023/08/13 01:03:44;;;;;;;;;;;17.10;99.90;;;;;;5113281;28;19918;-46
2023/08/13 01:06:18;;;;;;;;;;;17.10;99.90;;;;;;5112486;28;19990;-45
2023/08/13 01:08:46;;;;;;;;;;;17.10;99.90;;;;;;5113484;28;19912;-43
2023/08/13 01:11:19;;;;;;;;;;;17.10;99.90;;;;;;5113278;28;19923;-45
2023/08/13 01:13:46;;;;;;;;;;;17.10;99.90;;;;;;5112455;28;19918;-45
2023/08/13 01:16:13;;;;;;;;;;;17.10;99.90;;;;;;5113197;28;19907;-44
2023/08/13 01:18:39;;;;;;;;;;;17.00;99.90;;;;;;5135905;27;19919;-45
2023/08/13 01:21:05;;;;;;;;;;;17.00;99.90;;;;;;5153749;27;20294;-45
2023/08/13 01:23:30;;;;;;;;;;;17.00;99.90;;;;;;5154491;27;19914;-45
2023/08/13 01:26:03;;;;;;;;;;;17.00;99.90;;;;;;5153654;27;19908;-45
2023/08/13 01:28:41;;;;;;;;;;;17.00;99.90;;;;;;5154542;27;19907;-44
2023/08/13 01:31:16;;;;;;;;;;;17.00;99.90;;;;;;5152337;27;19925;-45
2023/08/13 01:33:45;;;;;;;;;;;16.90;99.90;;;;;;5153742;27;19907;-44
2023/08/13 01:36:14;;;;;;;;;;;16.90;99.90;;;;;;5154427;27;19907;-46
2023/08/13 01:38:40;;;;;;;;;;;16.90;99.90;;;;;;5154441;27;20010;-47
2023/08/13 01:41:05;;;;;;;;;;;16.90;99.90;;;;;;5153623;27;20321;-44
2023/08/13 01:43:31;;;;;;;;;;;16.90;99.90;;;;;;5135453;27;19919;-44
2023/08/13 01:45:58;;;;;;;;;;;16.90;99.90;;;;;;5154251;27;19959;-45
2023/08/13 01:48:23;;;;;;;;;;;16.90;99.90;;;;;;5153490;27;19956;-44
2023/08/13 01:50:49;;;;;;;;;;;16.90;99.90;;;;;;5154079;27;19958;-43
2023/08/13 01:53:14;;;;;;;;;;;16.90;99.90;;;;;;5154172;27;19917;-47
2023/08/13 01:55:40;;;;;;;;;;;16.90;99.90;;;;;;5153431;27;20364;-43
2023/08/13 01:58:05;;;;;;;;;;;16.90;99.90;;;;;;5155866;27;19908;-45
2023/08/13 02:00:31;;;;;;;;;;;16.90;99.90;;;;;;5157249;27;19908;-45
2023/08/13 02:02:56;;;;;;;;;;;16.80;99.90;;;;;;5136560;27;20010;-43
2023/08/13 02:05:22;;;;;;;;;;;16.80;99.90;;;;;;5137472;27;20358;-44
2023/08/13 02:07:47;;;;;;;;;;;16.80;99.90;;;;;;5136043;27;20048;-43
2023/08/13 02:10:13;;;;;;;;;;;16.80;99.90;;;;;;5135300;27;20010;-44
2023/08/13 02:12:39;;;;;;;;;;;16.80;99.90;;;;;;5137154;27;19907;-44
2023/08/13 02:15:05;;;;;;;;;;;16.80;99.90;;;;;;5136322;27;19908;-46
2023/08/13 02:17:30;;;;;;;;;;;16.80;99.90;;;;;;5137067;27;19938;-45
2023/08/13 02:19:56;;;;;;;;;;;16.70;99.90;;;;;;5137006;27;19965;-46
2023/08/13 02:22:21;;;;;;;;;;;16.70;99.90;;;;;;5136340;27;19911;-44
2023/08/13 02:24:46;;;;;;;;;;;16.70;99.90;;;;;;5137059;27;19986;-45
2023/08/13 02:27:12;;;;;;;;;;;16.70;99.90;;;;;;5117994;27;20002;-44
2023/08/13 02:29:38;;;;;;;;;;;16.60;99.90;;;;;;5115678;28;20027;-47
2023/08/13 02:32:03;;;;;;;;;;;16.70;99.90;;;;;;5130097;27;19919;-45
2023/08/13 02:34:31;;;;;;;;;;;16.70;99.90;;;;;;5136681;27;19908;-45
2023/08/13 02:36:56;;;;;;;;;;;16.70;99.90;;;;;;5135788;27;20358;-46
2023/08/13 02:39:22;;;;;;;;;;;16.70;99.90;;;;;;5134657;27;19911;-44
2023/08/13 02:41:47;;;;;;;;;;;16.70;99.90;;;;;;5136534;27;19912;-44
2023/08/13 02:44:13;;;;;;;;;;;16.60;99.90;;;;;;5135567;27;20378;-44
2023/08/13 02:46:38;;;;;;;;;;;16.60;99.90;;;;;;5136472;27;19907;-46
2023/08/13 02:49:04;;;;;;;;;;;16.60;99.90;;;;;;5136409;27;19956;-45
2023/08/13 02:51:29;;;;;;;;;;;16.50;99.90;;;;;;5135624;27;19968;-49
2023/08/13 02:53:55;;;;;;;;;;;16.60;99.90;;;;;;5136446;27;19930;-46
2023/08/13 02:56:20;;;;;;;;;;;16.50;99.90;;;;;;5126443;27;19911;-45
2023/08/13 02:58:46;;;;;;;;;;;16.50;99.90;;;;;;5114943;28;19912;-45
2023/08/13 03:01:12;;;;;;;;;;;16.50;99.90;;;;;;5125757;27;19917;-43
2023/08/13 03:03:37;;;;;;;;;;;16.50;99.90;;;;;;5156999;27;20365;-44
2023/08/13 03:06:03;;;;;;;;;;;16.50;99.90;;;;;;5156001;27;20015;-43
2023/08/13 03:08:28;;;;;;;;;;;16.50;99.90;;;;;;5156345;27;19907;-45
2023/08/13 03:10:54;;;;;;;;;;;16.50;99.90;;;;;;5155650;27;19923;-47
2023/08/13 03:13:19;;;;;;;;;;;16.50;99.90;;;;;;5137400;27;19913;-44
2023/08/13 03:15:45;;;;;;;;;;;16.40;99.90;;;;;;5156688;27;19931;-47
2023/08/13 03:18:10;;;;;;;;;;;16.40;99.90;;;;;;5156733;27;19907;-43
2023/08/13 03:20:36;;;;;;;;;;;16.40;99.90;;;;;;5143563;27;19912;-45
2023/08/13 03:23:02;;;;;;;;;;;16.40;99.90;;;;;;5135816;27;20303;-44
2023/08/13 03:25:27;;;;;;;;;;;16.40;99.90;;;;;;5133915;27;19959;-44
2023/08/13 03:27:53;;;;;;;;;;;16.40;99.90;;;;;;5135801;27;19907;-44
2023/08/13 03:30:18;;;;;;;;;;;16.40;99.90;;;;;;5135647;27;19907;-45
2023/08/13 03:32:44;;;;;;;;;;;16.30;99.90;;;;;;5134820;27;20474;-45
2023/08/13 03:35:09;;;;;;;;;;;16.30;99.90;;;;;;5135458;27;19914;-45
2023/08/13 03:37:35;;;;;;;;;;;16.30;99.90;;;;;;5120644;27;20519;-45
2023/08/13 03:40:00;;;;;;;;;;;16.20;99.90;;;;;;5114215;28;19907;-45
2023/08/13 03:42:26;;;;;;;;;;;16.30;99.90;;;;;;5115114;28;20011;-45
2023/08/13 03:44:51;;;;;;;;;;;16.20;99.90;;;;;;5114747;28;20382;-45
2023/08/13 03:47:16;;;;;;;;;;;16.20;99.90;;;;;;5113907;28;19914;-44
2023/08/13 03:49:42;;;;;;;;;;;16.20;99.90;;;;;;5114870;28;19929;-45
2023/08/13 03:52:09;;;;;;;;;;;16.20;99.90;;;;;;5114698;28;19916;-46
2023/08/13 03:54:35;;;;;;;;;;;16.20;99.90;;;;;;5113903;28;19964;-44
2023/08/13 03:57:00;;;;;;;;;;;16.20;99.90;;;;;;5114495;28;20200;-45
2023/08/13 03:59:26;;;;;;;;;;;16.10;99.90;;;;;;5114691;28;19908;-46
2023/08/13 04:01:51;;;;;;;;;;;16.10;99.90;;;;;;5131587;27;19911;-46
2023/08/13 04:04:17;;;;;;;;;;;16.10;99.90;;;;;;5155737;27;19911;-43
2023/08/13 04:06:43;;;;;;;;;;;16.10;99.90;;;;;;5155678;27;20401;-45
2023/08/13 04:09:09;;;;;;;;;;;16.10;99.90;;;;;;5154572;27;19918;-44
2023/08/13 04:11:34;;;;;;;;;;;16.10;99.90;;;;;;5155613;27;19918;-44
2023/08/13 04:14:00;;;;;;;;;;;16.00;99.90;;;;;;5155592;27;19907;-45
2023/08/13 04:16:26;;;;;;;;;;;16.00;99.90;;;;;;5154642;27;19929;-46
2023/08/13 04:18:52;;;;;;;;;;;16.00;99.90;;;;;;5155523;27;19911;-47
2023/08/13 04:21:17;;;;;;;;;;;15.90;99.90;;;;;;5154947;27;19968;-44
2023/08/13 04:23:43;;;;;;;;;;;15.90;99.90;;;;;;5136089;27;19907;-44
2023/08/13 04:26:09;;;;;;;;;;;15.90;99.90;;;;;;5155274;27;19907;-44
2023/08/13 04:28:34;;;;;;;;;;;15.90;99.90;;;;;;5155307;27;20358;-44
2023/08/13 04:31:00;;;;;;;;;;;15.90;99.90;;;;;;5153969;27;19962;-43
2023/08/13 04:33:25;;;;;;;;;;;15.90;99.90;;;;;;5155314;27;19946;-44
2023/08/13 04:35:51;;;;;;;;;;;15.90;99.90;;;;;;5154517;27;20417;-45
2023/08/13 04:38:17;;;;;;;;;;;15.90;99.90;;;;;;5155025;27;20278;-44
2023/08/13 04:40:45;;;;;;;;;;;15.90;99.90;;;;;;5155162;27;19915;-45
2023/08/13 04:43:11;;;;;;;;;;;15.90;99.90;;;;;;5153946;27;19907;-45
2023/08/13 04:45:36;;;;;;;;;;;15.90;99.90;;;;;;5155055;27;19930;-45
2023/08/13 04:48:02;;;;;;;;;;;16.00;99.90;;;;;;5146781;27;20002;-44
2023/08/13 04:50:27;;;;;;;;;;;16.00;99.90;;;;;;5133341;27;19908;-44
2023/08/13 04:52:53;;;;;;;;;;;16.10;99.90;;;;;;5134171;27;19908;-46
2023/08/13 04:55:18;;;;;;;;;;;16.10;99.90;;;;;;5134106;27;19914;-45
2023/08/13 04:57:44;;;;;;;;;;;16.10;99.90;;;;;;5133515;27;19919;-44
2023/08/13 05:00:10;;;;;;;;;;;16.10;99.90;;;;;;5125753;27;20381;-45
2023/08/13 05:02:36;;;;;;;;;;;16.20;99.90;;;;;;5129212;27;19912;-45
2023/08/13 05:05:01;;;;;;;;;;;16.20;99.90;;;;;;5121521;27;19912;-45
2023/08/13 05:07:26;;;;;;;;;;;16.20;99.90;;;;;;5113391;28;20418;-45
2023/08/13 05:09:52;;;;;;;;;;;16.30;99.90;;;;;;5113402;28;19908;-45
2023/08/13 05:12:17;;;;;;;;;;;16.30;99.90;;;;;;5112707;28;19915;-47
2023/08/13 05:14:43;;;;;;;;;;;16.30;99.90;;;;;;5113371;28;19912;-44
2023/08/13 05:17:18;;;;;;;;;;;16.40;99.90;;;;;;5113240;28;19908;-44
2023/08/13 05:19:44;;;;;;;;;;;16.30;99.90;;;;;;5112652;28;19908;-47
2023/08/13 05:22:09;;;;;;;;;;;16.30;99.90;;;;;;5116407;27;19964;-43
2023/08/13 05:24:35;;;;;;;;;;;16.30;99.90;;;;;;5121954;27;19919;-44
2023/08/13 05:27:00;;;;;;;;;;;16.30;99.90;;;;;;5122952;28;19911;-44
2023/08/13 05:29:26;;;;;;;;;;;16.40;99.90;;;;;;5131013;28;20382;-46
2023/08/13 05:31:53;;;;;;;;;;;16.40;99.90;;;;;;5140014;27;19919;-46
2023/08/13 05:34:19;;;;;;;;;;;16.40;99.90;;;;;;5154164;27;20013;-45
2023/08/13 05:36:44;;;;;;;;;;;16.40;99.90;;;;;;5141833;27;20064;-46
2023/08/13 05:39:10;;;;;;;;;;;16.50;99.90;;;;;;5135956;27;19912;-43
2023/08/13 05:41:36;;;;;;;;;;;16.50;99.90;;;;;;5117392;28;19908;-46
2023/08/13 05:44:02;;;;;;;;;;;16.50;99.90;;;;;;5116857;28;19927;-43
2023/08/13 05:46:27;;;;;;;;;;;16.60;99.90;;;;;;5116507;28;20366;-46
2023/08/13 05:48:53;;;;;;;;;;;16.60;99.90;;;;;;5118726;27;20390;-45
2023/08/13 05:51:18;;;;;;;;;;;16.70;99.90;;;;;;5141114;27;20366;-45
2023/08/13 05:53:44;;;;;;;;;;;16.70;99.90;;;;;;5136701;27;19908;-45
2023/08/13 05:56:09;;;;;;;;;;;16.60;99.90;;;;;;5119144;27;19954;-44
2023/08/13 05:58:35;;;;;;;;;;;16.60;99.90;;;;;;5123954;27;19923;-45
2023/08/13 06:01:00;;;;;;;;;;;16.60;99.90;;;;;;5128332;27;19962;-45
2023/08/13 06:03:26;;;;;;;;;;;16.60;99.90;;;;;;5131034;27;19914;-46
2023/08/13 06:05:52;;;;;;;;;;;16.60;99.90;;;;;;5135960;27;19915;-47
2023/08/13 06:08:18;;;;;;;;;;;16.60;99.90;;;;;;5139188;27;19959;-45
2023/08/13 06:10:43;;;;;;;;;;;16.50;99.90;;;;;;5138994;27;19922;-46
2023/08/13 06:13:09;;;;;;;;;;;16.60;99.90;;;;;;5140887;27;20323;-46
2023/08/13 06:15:34;;;;;;;;;;;16.50;99.90;;;;;;5140125;27;19914;-46
2023/08/13 06:18:00;;;;;;;;;;;16.50;99.90;;;;;;5136951;27;19907;-45
2023/08/13 06:20:25;;;;;;;;;;;16.60;99.90;;;;;;5136459;27;19912;-45
2023/08/13 06:22:51;;;;;;;;;;;16.60;99.90;;;;;;5136128;27;20310;-45
2023/08/13 06:25:16;;;;;;;;;;;16.70;99.90;;;;;;5141027;27;19940;-44
2023/08/13 06:27:42;;;;;;;;;;;16.80;99.90;;;;;;5131774;27;19994;-44
2023/08/13 06:30:07;;;;;;;;;;;16.80;99.90;;;;;;5129286;27;19919;-44
2023/08/13 06:32:33;;;;;;;;;;;16.90;99.90;;;;;;5133365;27;19954;-45
2023/08/13 06:34:59;;;;;;;;;;;16.90;99.90;;;;;;5136785;27;19915;-45
2023/08/13 06:37:24;;;;;;;;;;;17.00;99.90;;;;;;5136029;27;19955;-44
2023/08/13 06:39:49;;;;;;;;;;;17.10;99.90;;;;;;5147679;27;19911;-43
2023/08/13 06:42:16;;;;;;;;;;;17.20;99.90;;;;;;5136591;27;20461;-46
2023/08/13 06:44:42;;;;;;;;;;;17.30;99.90;;;;;;5147872;27;20018;-44
2023/08/13 06:47:08;;;;;;;;;;;17.40;99.90;;;;;;5132986;27;19919;-45
2023/08/13 06:49:33;;;;;;;;;;;17.50;99.90;;;;;;5139670;27;19997;-46
2023/08/13 06:51:59;;;;;;;;;;;17.70;99.90;;;;;;5136392;27;19923;-44
2023/08/13 06:54:24;;;;;;;;;;;17.80;99.90;;;;;;5151752;27;19918;-45
2023/08/13 06:56:50;;;;;;;;;;;17.90;99.90;;;;;;5156515;27;19913;-43
2023/08/13 06:59:15;;;;;;;;;;;17.90;99.90;;;;;;5157032;27;20431;-46
2023/08/13 07:01:41;;;;;;;;;;;17.90;99.90;;;;;;5157158;27;20315;-46
2023/08/13 07:04:07;;;;;;;;;;;18.00;99.90;;;;;;5146543;27;19915;-44
2023/08/13 07:06:32;;;;;;;;;;;18.00;99.90;;;;;;5124481;27;19912;-46
2023/08/13 07:08:58;;;;;;;;;;;17.90;99.90;;;;;;5124233;27;19908;-43
2023/08/13 07:11:23;;;;;;;;;;;17.90;99.90;;;;;;5114817;28;20431;-44
2023/08/13 07:13:51;;;;;;;;;;;18.00;99.90;;;;;;5115574;28;20405;-44
2023/08/13 07:16:17;;;;;;;;;;;18.10;99.90;;;;;;5115644;28;19943;-44
2023/08/13 07:18:43;;;;;;;;;;;18.20;99.90;;;;;;5114669;28;19956;-45
2023/08/13 07:21:09;;;;;;;;;;;18.30;99.90;;;;;;5115168;28;19911;-45
2023/08/13 07:23:35;;;;;;;;;;;18.40;99.90;;;;;;5115395;28;19912;-45
2023/08/13 07:26:01;;;;;;;;;;;18.50;99.90;;;;;;5114534;28;19908;-46
2023/08/13 07:28:26;;;;;;;;;;;18.60;99.90;;;;;;5115314;28;19914;-46
2023/08/13 07:30:52;;;;;;;;;;;18.60;99.90;;;;;;5132949;27;20022;-45
2023/08/13 07:33:17;;;;;;;;;;;18.70;99.90;;;;;;5155440;27;19915;-45
2023/08/13 07:35:43;;;;;;;;;;;18.80;99.90;;;;;;5156437;27;20369;-46
2023/08/13 07:38:08;;;;;;;;;;;18.80;99.90;;;;;;5153110;27;19919;-45
2023/08/13 07:40:34;;;;;;;;;;;18.80;99.90;;;;;;5134828;27;20010;-44
2023/08/13 07:43:00;;;;;;;;;;;18.90;99.90;;;;;;5135497;27;19914;-45
2023/08/13 07:45:26;;;;;;;;;;;19.10;99.90;;;;;;5135275;27;20284;-49
2023/08/13 07:47:52;;;;;;;;;;;19.10;99.90;;;;;;5134713;27;19974;-46
2023/08/13 07:50:18;;;;;;;;;;;19.20;99.90;;;;;;5135345;27;20265;-44
2023/08/13 07:52:43;;;;;;;;;;;19.20;99.90;;;;;;5134456;27;19922;-47
2023/08/13 07:55:10;;;;;;;;;;;19.30;99.90;;;;;;5134293;27;19915;-46
2023/08/13 07:57:36;;;;;;;;;;;19.30;99.90;;;;;;5124057;27;19923;-45
2023/08/13 08:00:02;;;;;;;;;;;19.40;99.90;;;;;;5122315;27;19915;-44
2023/08/13 08:02:27;;;;;;;;;;;19.40;99.90;;;;;;5134708;27;20381;-47
2023/08/13 08:04:53;;;;;;;;;;;19.40;99.90;;;;;;5126786;27;19919;-46
2023/08/13 08:07:18;;;;;;;;;;;19.40;99.90;;;;;;5116748;27;20355;-46
2023/08/13 08:09:44;;;;;;;;;;;19.40;99.90;;;;;;5121585;27;19912;-49
2023/08/13 08:12:09;;;;;;;;;;;19.40;99.90;;;;;;5125752;27;19915;-44
2023/08/13 08:14:35;;;;;;;;;;;19.40;99.90;;;;;;5134799;27;19912;-47
2023/08/13 08:17:05;;;;;;;;;;;19.50;99.90;;;;;;5135087;27;19908;-49
2023/08/13 08:19:31;;;;;;;;;;;19.50;99.90;;;;;;5135240;27;19932;-47
2023/08/13 08:21:58;;;;;;;;;;;19.50;99.90;;;;;;5134691;27;20268;-45
2023/08/13 08:24:24;;;;;;;;;;;19.60;99.90;;;;;;5135338;27;19907;-45
2023/08/13 08:26:49;;;;;;;;;;;19.60;99.90;;;;;;5135284;27;19921;-46
2023/08/13 08:29:15;;;;;;;;;;;19.70;99.90;;;;;;5134366;27;19911;-48
2023/08/13 08:31:40;;;;;;;;;;;19.70;99.90;;;;;;5152633;27;19919;-44
2023/08/13 08:34:06;;;;;;;;;;;19.70;99.90;;;;;;5155642;27;19907;-44
2023/08/13 08:36:31;;;;;;;;;;;19.70;99.90;;;;;;5154732;27;20030;-47
2023/08/13 08:38:57;;;;;;;;;;;19.70;99.90;;;;;;5155553;27;19951;-43
2023/08/13 08:41:23;;;;;;;;;;;19.80;99.90;;;;;;5155395;27;19917;-44
2023/08/13 08:43:49;;;;;;;;;;;19.80;99.90;;;;;;5154761;27;19919;-46
2023/08/13 08:46:15;;;;;;;;;;;19.90;99.90;;;;;;5155494;27;19960;-46
2023/08/13 08:48:41;;;;;;;;;;;20.00;99.90;;;;;;5155261;27;19941;-45
2023/08/13 08:51:07;;;;;;;;;;;20.10;99.90;;;;;;5154675;27;19946;-45
2023/08/13 08:53:33;;;;;;;;;;;20.10;99.90;;;;;;5155188;27;20277;-43
2023/08/13 08:55:58;;;;;;;;;;;20.20;99.90;;;;;;5133850;27;19993;-43
2023/08/13 08:58:24;;;;;;;;;;;20.20;99.90;;;;;;5152456;27;19913;-45
2023/08/13 09:00:56;;;;;;;;;;;20.20;99.90;;;;;;5155040;27;19907;-47
2023/08/13 09:03:22;;;;;;;;;;;20.20;99.90;;;;;;5154201;27;19915;-44
2023/08/13 09:05:48;;;;;;;;;;;20.20;99.90;;;;;;5155280;27;20354;-43
2023/08/13 09:08:14;;;;;;;;;;;20.30;99.90;;;;;;5155230;27;19907;-45
2023/08/13 09:10:43;;;;;;;;;;;20.40;99.90;;;;;;5154599;27;19914;-46
2023/08/13 09:13:09;;;;;;;;;;;20.50;99.90;;;;;;5154943;27;20002;-45
2023/08/13 09:15:38;;;;;;;;;;;20.50;99.90;;;;;;5155054;27;19907;-44
2023/08/13 09:18:05;;;;;;;;;;;20.60;99.90;;;;;;5154394;27;19914;-47
2023/08/13 09:20:30;;;;;;;;;;;20.70;99.90;;;;;;5155033;27;19913;-48
2023/08/13 09:22:58;;;;;;;;;;;20.90;99.90;;;;;;5154886;27;19907;-45
2023/08/13 09:25:24;;;;;;;;;;;20.80;99.90;;;;;;5149494;27;19908;-45
2023/08/13 09:27:49;;;;;;;;;;;20.90;99.90;;;;;;5133478;27;19917;-48
2023/08/13 09:30:28;;;;;;;;;;;21.00;99.90;;;;;;5125818;27;20000;-45
2023/08/13 09:32:56;;;;;;;;;;;21.10;99.90;;;;;;5146682;27;19919;-44
2023/08/13 09:35:21;;;;;;;;;;;21.30;99.90;;;;;;5133507;27;19921;-50
2023/08/13 09:37:47;;;;;;;;;;;21.40;99.90;;;;;;5153348;27;20269;-45
2023/08/13 09:40:13;;;;;;;;;;;21.60;99.90;;;;;;5137551;27;20428;-45
2023/08/13 09:42:38;;;;;;;;;;;21.80;99.90;;;;;;5133230;28;19907;-49
2023/08/13 09:45:05;;;;;;;;;;;21.90;99.90;;;;;;5132470;28;19930;-46
2023/08/13 09:47:32;;;;;;;;;;;21.90;99.90;;;;;;5132211;28;20006;-45
2023/08/13 09:49:58;;;;;;;;;;;22.00;99.90;;;;;;5132450;28;19930;-45
2023/08/13 09:52:27;;;;;;;;;;;22.00;99.90;;;;;;5132592;28;19923;-50
2023/08/13 09:54:59;;;;;;;;;;;22.00;99.90;;;;;;5130159;28;20043;-45
2023/08/13 09:57:26;;;;;;;;;;;22.00;99.90;;;;;;5143021;27;19933;-46
2023/08/13 09:59:51;;;;;;;;;;;22.10;99.90;;;;;;5142184;27;19998;-47
2023/08/13 10:02:18;;;;;;;;;;;22.20;99.90;;;;;;5133432;28;19998;-46
2023/08/13 10:04:44;;;;;;;;;;;22.30;99.90;;;;;;5133775;28;20346;-44
2023/08/13 10:07:10;;;;;;;;;;;22.30;99.90;;;;;;5133570;28;20002;-44
2023/08/13 10:09:37;;;;;;;;;;;22.20;99.90;;;;;;5132097;27;19953;-44
2023/08/13 10:12:03;;;;;;;;;;;22.10;99.90;;;;;;5112990;28;19951;-47
2023/08/13 10:14:30;;;;;;;;;;;22.20;99.90;;;;;;5123858;28;19908;-46
2023/08/13 10:16:55;;;;;;;;;;;22.20;99.90;;;;;;5133023;28;19911;-46
2023/08/13 10:19:27;;;;;;;;;;;22.30;99.90;;;;;;5135997;27;19964;-44
2023/08/13 10:21:56;;;;;;;;;;;22.40;99.90;;;;;;5137280;27;19907;-44
2023/08/13 10:24:22;;;;;;;;;;;22.50;99.90;;;;;;5137696;27;19919;-46
2023/08/13 10:26:49;;;;;;;;;;;22.60;99.90;;;;;;5137232;27;19912;-47
2023/08/13 10:29:19;;;;;;;;;;;22.60;99.90;;;;;;5118562;27;19911;-47
2023/08/13 10:31:55;;;;;;;;;;;22.50;99.90;;;;;;5137458;27;20018;-46
2023/08/13 10:34:39;;;;;;;;;;;22.30;99.90;;;;;;5137353;27;20338;-46
2023/08/13 10:37:12;;;;;;;;;;;22.20;99.90;;;;;;5134253;27;19911;-45
2023/08/13 10:39:39;;;;;;;;;;;22.20;99.90;;;;;;5116640;28;19908;-46
2023/08/13 10:42:25;;;;;;;;;;;22.20;99.90;;;;;;5116078;28;19908;-45
2023/08/13 10:44:50;;;;;;;;;;;22.20;99.90;;;;;;5116119;28;19926;-49
2023/08/13 10:47:16;;;;;;;;;;;22.20;99.90;;;;;;5116102;28;19912;-45
2023/08/13 10:49:41;;;;;;;;;;;22.20;99.90;;;;;;5116034;28;19908;-46
2023/08/13 10:52:07;;;;;;;;;;;22.30;99.90;;;;;;5117937;27;19920;-46
2023/08/13 10:54:33;;;;;;;;;;;22.30;99.90;;;;;;5135831;27;19907;-49
2023/08/13 10:56:58;;;;;;;;;;;22.30;99.90;;;;;;5135695;27;20292;-46
2023/08/13 10:59:31;;;;;;;;;;;22.20;99.90;;;;;;5136061;27;19907;-44
2023/08/13 11:02:11;;;;;;;;;;;22.20;99.90;;;;;;5135593;27;20396;-44
2023/08/13 11:04:37;;;;;;;;;;;22.20;99.90;;;;;;5136187;27;19938;-47
2023/08/13 11:07:02;;;;;;;;;;;22.10;99.90;;;;;;5128500;27;20345;-45
2023/08/13 11:09:31;;;;;;;;;;;22.20;99.90;;;;;;5135999;27;19914;-44
2023/08/13 11:11:56;;;;;;;;;;;22.20;99.90;;;;;;5136255;27;20010;-45
2023/08/13 11:14:22;;;;;;;;;;;22.20;99.90;;;;;;5136819;27;20354;-45
2023/08/13 11:16:47;;;;;;;;;;;22.20;99.90;;;;;;5136277;27;19908;-45
2023/08/13 11:19:13;;;;;;;;;;;22.30;99.90;;;;;;5136018;27;19947;-44
2023/08/13 11:21:38;;;;;;;;;;;22.30;99.90;;;;;;5148889;27;19911;-44
2023/08/13 11:24:05;;;;;;;;;;;22.30;99.90;;;;;;5138550;27;19911;-44
2023/08/13 11:26:34;;;;;;;;;;;22.30;99.90;;;;;;5147317;27;19960;-46
2023/08/13 11:29:00;;;;;;;;;;;22.30;99.90;;;;;;5156322;27;20669;-44
2023/08/13 11:31:25;;;;;;;;;;;22.20;99.90;;;;;;5154881;27;19922;-45
2023/08/13 11:33:51;;;;;;;;;;;22.30;99.90;;;;;;5156108;27;19907;-44
2023/08/13 11:36:17;;;;;;;;;;;22.30;99.90;;;;;;5156364;27;20345;-49
2023/08/13 11:38:42;;;;;;;;;;;22.40;99.90;;;;;;5118137;27;20346;-45
2023/08/13 11:41:12;;;;;;;;;;;22.40;99.90;;;;;;5115524;28;19958;-45
2023/08/13 11:43:37;;;;;;;;;;;22.40;99.90;;;;;;5124054;27;19927;-45
2023/08/13 11:46:04;;;;;;;;;;;22.40;99.90;;;;;;5121946;27;19908;-44
2023/08/13 11:48:31;;;;;;;;;;;22.30;99.90;;;;;;5114684;28;19908;-45
2023/08/13 11:51:09;;;;;;;;;;;22.40;99.90;;;;;;5121606;27;20350;-45
2023/08/13 11:53:45;;;;;;;;;;;22.40;99.90;;;;;;5133317;27;19911;-45
2023/08/13 11:56:11;;;;;;;;;;;22.50;99.90;;;;;;5135197;27;19915;-44
2023/08/13 11:58:39;;;;;;;;;;;22.70;99.90;;;;;;5134746;27;20206;-44
2023/08/13 12:01:04;;;;;;;;;;;22.80;99.90;;;;;;5135033;27;19907;-45
2023/08/13 12:03:37;;;;;;;;;;;22.90;99.90;;;;;;5135779;27;20374;-47
2023/08/13 12:06:04;;;;;;;;;;;23.00;99.90;;;;;;5134985;27;19915;-48
2023/08/13 12:08:30;;;;;;;;;;;22.90;99.90;;;;;;5135427;27;19914;-47
2023/08/13 12:10:56;;;;;;;;;;;22.80;99.90;;;;;;5135279;27;20447;-44
2023/08/13 12:13:22;;;;;;;;;;;22.60;99.90;;;;;;5135057;27;19915;-45
2023/08/13 12:15:47;;;;;;;;;;;22.50;99.90;;;;;;5135454;27;19990;-44
2023/08/13 12:18:13;;;;;;;;;;;22.40;99.90;;;;;;5135274;27;20278;-44
2023/08/13 12:20:38;;;;;;;;;;;22.20;99.90;;;;;;5130172;27;20488;-46
2023/08/13 12:23:04;;;;;;;;;;;22.10;99.90;;;;;;5114499;28;19943;-46
2023/08/13 12:25:29;;;;;;;;;;;22.00;99.90;;;;;;5114889;28;19908;-47
2023/08/13 12:27:55;;;;;;;;;;;21.80;99.90;;;;;;5113312;28;20335;-50
2023/08/13 12:30:21;;;;;;;;;;;21.80;99.90;;;;;;5114514;28;19912;-46
2023/08/13 12:32:46;;;;;;;;;;;21.70;99.90;;;;;;5114655;28;19923;-45
2023/08/13 12:35:12;;;;;;;;;;;21.70;99.90;;;;;;5113845;28;19908;-45
2023/08/13 12:37:38;;;;;;;;;;;21.70;99.90;;;;;;5114392;28;19931;-46
2023/08/13 12:40:04;;;;;;;;;;;21.80;99.90;;;;;;5114288;28;19998;-49
2023/08/13 12:42:29;;;;;;;;;;;22.00;99.90;;;;;;5113101;28;19962;-48
2023/08/13 12:44:55;;;;;;;;;;;22.10;99.90;;;;;;5113801;28;20120;-44
2023/08/13 12:47:20;;;;;;;;;;;22.20;99.90;;;;;;5113906;28;20560;-45
2023/08/13 12:49:46;;;;;;;;;;;22.40;99.90;;;;;;5113737;28;19908;-45
2023/08/13 12:52:12;;;;;;;;;;;22.60;99.90;;;;;;5130596;27;19946;-44
2023/08/13 12:54:37;;;;;;;;;;;22.80;99.90;;;;;;5134652;27;20284;-46
2023/08/13 12:57:03;;;;;;;;;;;22.90;99.90;;;;;;5134197;27;19961;-46
2023/08/13 12:59:28;;;;;;;;;;;23.00;99.90;;;;;;5134791;27;19914;-46
2023/08/13 13:01:54;;;;;;;;;;;23.00;99.90;;;;;;5134272;27;19907;-45
2023/08/13 13:04:19;;;;;;;;;;;23.10;99.90;;;;;;5133541;27;19998;-49
2023/08/13 13:06:45;;;;;;;;;;;23.20;99.90;;;;;;5113778;28;19994;-45
2023/08/13 13:09:10;;;;;;;;;;;23.30;99.90;;;;;;5113383;28;19990;-45
2023/08/13 13:11:36;;;;;;;;;;;23.30;99.90;;;;;;5113962;28;19995;-46
2023/08/13 13:14:02;;;;;;;;;;;23.30;99.90;;;;;;5115238;28;19907;-44
2023/08/13 13:16:28;;;;;;;;;;;23.30;99.90;;;;;;5133506;27;19914;-47
2023/08/13 13:18:53;;;;;;;;;;;23.30;99.90;;;;;;5134607;27;19927;-48
2023/08/13 13:21:19;;;;;;;;;;;23.30;99.90;;;;;;5124439;27;19907;-46
2023/08/13 13:23:45;;;;;;;;;;;23.20;99.90;;;;;;5114653;28;19994;-46
2023/08/13 13:26:11;;;;;;;;;;;23.20;99.90;;;;;;5134333;27;19984;-45
2023/08/13 13:28:38;;;;;;;;;;;23.20;99.90;;;;;;5133836;27;19961;-47
2023/08/13 13:31:03;;;;;;;;;;;23.10;99.90;;;;;;5134030;27;19915;-45
2023/08/13 13:33:30;;;;;;;;;;;23.10;99.90;;;;;;5134146;28;19912;-44
2023/08/13 13:35:56;;;;;;;;;;;23.10;99.90;;;;;;5134267;28;19918;-45
2023/08/13 13:38:21;;;;;;;;;;;23.00;99.90;;;;;;5133741;28;19913;-46
2023/08/13 13:40:47;;;;;;;;;;;23.00;99.90;;;;;;5134265;28;19981;-47
2023/08/13 13:43:13;;;;;;;;;;;23.00;99.90;;;;;;5133729;28;20286;-46
2023/08/13 13:45:38;;;;;;;;;;;23.10;99.90;;;;;;5133783;28;20369;-47
2023/08/13 13:48:04;;;;;;;;;;;23.30;99.90;;;;;;5134106;28;19955;-44
2023/08/13 13:50:29;;;;;;;;;;;23.30;99.90;;;;;;5135012;27;19911;-47
2023/08/13 13:52:55;;;;;;;;;;;23.20;99.90;;;;;;5125093;27;19919;-46
2023/08/13 13:55:21;;;;;;;;;;;23.10;99.90;;;;;;5135462;27;19908;-47
2023/08/13 13:57:46;;;;;;;;;;;23.10;99.90;;;;;;5117617;28;19966;-46
2023/08/13 14:00:12;;;;;;;;;;;22.90;99.90;;;;;;5117004;28;20365;-46
2023/08/13 14:02:38;;;;;;;;;;;22.90;99.90;;;;;;5117453;28;19927;-44
2023/08/13 14:05:04;;;;;;;;;;;22.80;99.90;;;;;;5117253;28;19916;-45
2023/08/13 14:07:29;;;;;;;;;;;22.80;99.90;;;;;;5116547;28;20288;-47
2023/08/13 14:09:55;;;;;;;;;;;22.80;99.90;;;;;;5117144;28;19915;-45